Time,TemperatureF,DewpointF,PressureIn,WindDirection,WindDirectionDegrees,WindSpeedMPH,WindSpeedGustMPH,Humidity,HourlyPrecipIn,Conditions,Clouds,dailyrainin,SoftwareType,DateUTC
2013-12-07 00:00:00,68.7,64.7,30.16,ESE,111,0.0,0.0,87,0.00,,---,0.00,VWS V14.01,2013-12-07 05:00:00,
2013-12-07 00:01:00,68.7,64.7,30.16,ESE,111,0.0,0.0,87,0.00,,---,0.00,VWS V14.01,2013-12-07 05:01:00,
2013-12-07 00:02:00,68.6,64.6,30.16,ESE,111,0.0,0.0,87,0.00,,---,0.00,VWS V14.01,2013-12-07 05:02:00,
2013-12-07 00:07:00,68.4,64.4,30.16,ESE,111,0.0,0.0,87,0.00,,---,0.00,VWS V14.01,2013-12-07 05:07:00,
2013-12-07 00:10:00,68.3,64.3,30.16,East,99,0.0,0.0,87,0.00,,---,0.00,VWS V14.01,2013-12-07 05:10:00,
2013-12-07 00:12:00,68.2,64.2,30.16,East,98,0.0,0.0,87,0.00,,---,0.00,VWS V14.01,2013-12-07 05:12:00,
2013-12-07 00:17:00,68.1,64.1,30.16,South,170,0.0,0.0,87,0.00,,---,0.00,VWS V14.01,2013-12-07 05:17:00,
2013-12-07 00:20:00,68.0,64.0,30.16,South,170,0.0,0.0,87,0.00,,---,0.00,VWS V14.01,2013-12-07 05:20:00,
2013-12-07 00:22:00,67.9,63.9,30.16,South,170,0.0,0.0,87,0.00,,---,0.00,VWS V14.01,2013-12-07 05:22:00,
2013-12-07 00:27:00,68.1,64.1,30.16,South,170,0.0,0.0,87,0.00,,---,0.00,VWS V14.01,2013-12-07 05:27:00,
2013-12-07 00:30:00,68.1,64.1,30.16,South,170,0.0,0.0,87,0.00,,---,0.00,VWS V14.01,2013-12-07 05:30:00,
2013-12-07 00:32:00,68.0,64.0,30.16,South,170,0.0,0.0,87,0.00,,---,0.00,VWS V14.01,2013-12-07 05:32:00,
2013-12-07 00:37:00,68.0,64.0,30.16,South,170,0.0,0.0,87,0.00,,---,0.00,VWS V14.01,2013-12-07 05:37:00,
2013-12-07 00:40:00,68.0,64.0,30.16,South,170,0.0,0.0,87,0.00,,---,0.00,VWS V14.01,2013-12-07 05:40:00,
2013-12-07 00:42:00,68.0,64.0,30.16,South,170,0.0,0.0,87,0.00,,---,0.00,VWS V14.01,2013-12-07 05:42:00,
2013-12-07 00:47:00,68.0,64.0,30.16,South,170,0.0,0.0,87,0.00,,---,0.00,VWS V14.01,2013-12-07 05:47:00,
2013-12-07 00:50:00,68.1,64.1,30.16,South,170,0.0,0.0,87,0.00,,---,0.00,VWS V14.01,2013-12-07 05:50:00,
2013-12-07 00:52:00,68.1,64.1,30.16,South,170,0.0,0.0,87,0.00,,---,0.00,VWS V14.01,2013-12-07 05:52:00,
2013-12-07 00:57:00,68.1,64.1,30.16,South,170,0.0,0.0,87,0.00,,---,0.00,VWS V14.01,2013-12-07 05:57:00,
2013-12-07 01:00:00,68.1,64.1,30.16,South,170,0.0,0.0,87,0.00,,---,0.00,VWS V14.01,2013-12-07 06:00:00,
2013-12-07 01:02:00,68.0,64.0,30.16,South,171,0.0,0.0,87,0.00,,---,0.00,VWS V14.01,2013-12-07 06:02:00,
2013-12-07 01:07:00,67.8,63.8,30.16,South,170,0.0,0.0,87,0.00,,---,0.00,VWS V14.01,2013-12-07 06:07:00,
2013-12-07 01:10:00,67.8,63.8,30.16,South,170,0.0,0.0,87,0.00,,---,0.00,VWS V14.01,2013-12-07 06:10:00,
2013-12-07 01:13:00,67.6,63.6,30.16,South,170,0.0,0.0,87,0.00,,---,0.00,VWS V14.01,2013-12-07 06:13:00,
2013-12-07 01:18:00,67.5,63.5,30.16,South,170,0.0,0.0,87,0.00,,---,0.00,VWS V14.01,2013-12-07 06:18:00,
2013-12-07 01:20:00,67.5,63.5,30.16,South,170,0.0,0.0,87,0.00,,---,0.00,VWS V14.01,2013-12-07 06:20:00,
2013-12-07 01:23:00,67.5,63.5,30.16,South,170,0.0,0.0,87,0.00,,---,0.00,VWS V14.01,2013-12-07 06:23:00,
2013-12-07 01:28:00,67.4,63.4,30.16,South,170,0.0,0.0,87,0.00,,---,0.00,VWS V14.01,2013-12-07 06:28:00,
2013-12-07 01:30:00,67.3,63.3,30.16,South,170,0.0,0.0,87,0.00,,---,0.00,VWS V14.01,2013-12-07 06:30:00,
2013-12-07 01:33:00,67.1,63.1,30.16,South,170,0.0,0.0,87,0.00,,---,0.00,VWS V14.01,2013-12-07 06:33:00,
2013-12-07 01:38:00,66.9,62.9,30.16,South,170,0.0,0.0,87,0.00,,---,0.00,VWS V14.01,2013-12-07 06:38:00,
2013-12-07 01:40:00,66.8,62.8,30.16,South,170,0.0,0.0,87,0.00,,---,0.00,VWS V14.01,2013-12-07 06:40:00,
2013-12-07 01:43:00,67.0,63.0,30.16,South,170,0.0,0.0,87,0.00,,---,0.00,VWS V14.01,2013-12-07 06:43:00,
2013-12-07 01:48:00,66.9,62.9,30.16,South,170,0.0,0.0,87,0.00,,---,0.00,VWS V14.01,2013-12-07 06:48:00,
2013-12-07 01:50:00,66.9,62.9,30.16,South,171,0.0,0.0,87,0.00,,---,0.00,VWS V14.01,2013-12-07 06:50:00,
2013-12-07 01:53:00,66.9,62.9,30.16,South,170,0.0,0.0,87,0.00,,---,0.00,VWS V14.01,2013-12-07 06:53:00,
2013-12-07 01:58:00,66.8,62.8,30.16,South,171,0.0,0.0,87,0.00,,---,0.00,VWS V14.01,2013-12-07 06:58:00,
2013-12-07 02:00:00,66.8,62.8,30.16,South,170,0.0,0.0,87,0.00,,---,0.00,VWS V14.01,2013-12-07 07:00:00,
2013-12-07 02:03:00,66.7,62.7,30.16,South,170,0.0,0.0,87,0.00,,---,0.00,VWS V14.01,2013-12-07 07:03:00,
2013-12-07 02:08:00,66.7,62.7,30.16,South,170,0.0,0.0,87,0.00,,---,0.00,VWS V14.01,2013-12-07 07:08:00,
2013-12-07 02:10:00,66.7,62.7,30.16,South,170,0.0,0.0,87,0.00,,---,0.00,VWS V14.01,2013-12-07 07:10:00,
2013-12-07 02:13:00,66.7,62.7,30.16,South,170,0.0,0.0,87,0.00,,---,0.00,VWS V14.01,2013-12-07 07:13:00,
2013-12-07 02:18:00,66.7,62.7,30.16,South,170,0.0,0.0,87,0.00,,---,0.00,VWS V14.01,2013-12-07 07:18:00,
2013-12-07 02:20:00,66.7,62.7,30.16,South,170,0.0,0.0,87,0.00,,---,0.00,VWS V14.01,2013-12-07 07:20:00,
2013-12-07 02:23:00,66.6,62.6,30.16,South,171,0.0,0.0,87,0.00,,---,0.00,VWS V14.01,2013-12-07 07:23:00,
2013-12-07 02:28:00,66.4,62.4,30.16,South,170,0.0,0.0,87,0.00,,---,0.00,VWS V14.01,2013-12-07 07:28:00,
2013-12-07 02:30:00,66.3,62.3,30.16,South,170,0.0,0.0,87,0.00,,---,0.00,VWS V14.01,2013-12-07 07:30:00,
2013-12-07 02:33:00,66.2,62.2,30.16,South,171,0.0,0.0,87,0.00,,---,0.00,VWS V14.01,2013-12-07 07:33:00,
2013-12-07 02:38:00,66.1,62.1,30.16,South,170,0.0,0.0,87,0.00,,---,0.00,VWS V14.01,2013-12-07 07:38:00,
2013-12-07 02:40:00,66.1,62.1,30.16,South,171,0.0,0.0,87,0.00,,---,0.00,VWS V14.01,2013-12-07 07:40:00,
2013-12-07 02:43:00,65.9,61.9,30.16,South,170,0.0,0.0,87,0.00,,---,0.00,VWS V14.01,2013-12-07 07:43:00,
2013-12-07 02:48:00,65.7,61.7,30.16,South,170,0.0,0.0,87,0.00,,---,0.00,VWS V14.01,2013-12-07 07:48:00,
2013-12-07 02:50:00,65.6,61.6,30.16,South,171,0.0,0.0,87,0.00,,---,0.00,VWS V14.01,2013-12-07 07:50:00,
2013-12-07 02:53:00,65.5,61.5,30.16,South,170,0.0,0.0,87,0.00,,---,0.00,VWS V14.01,2013-12-07 07:53:00,
2013-12-07 02:58:00,65.4,61.4,30.16,South,170,0.0,0.0,87,0.00,,---,0.00,VWS V14.01,2013-12-07 07:58:00,
2013-12-07 03:00:00,65.4,61.4,30.16,South,170,0.0,0.0,87,0.00,,---,0.00,VWS V14.01,2013-12-07 08:00:00,
2013-12-07 03:03:00,65.3,61.7,30.16,South,170,0.0,0.0,88,0.00,,---,0.00,VWS V14.01,2013-12-07 08:03:00,
2013-12-07 03:08:00,65.2,61.6,30.16,South,170,0.0,0.0,88,0.00,,---,0.00,VWS V14.01,2013-12-07 08:08:00,
2013-12-07 03:10:00,65.2,61.6,30.16,South,171,0.0,0.0,88,0.00,,---,0.00,VWS V14.01,2013-12-07 08:10:00,
2013-12-07 03:13:00,65.1,61.5,30.16,South,170,0.0,0.0,88,0.00,,---,0.00,VWS V14.01,2013-12-07 08:13:00,
2013-12-07 03:18:00,65.0,61.4,30.16,South,170,0.0,0.0,88,0.00,,---,0.00,VWS V14.01,2013-12-07 08:18:00,
2013-12-07 03:20:00,65.0,61.4,30.16,South,171,0.0,0.0,88,0.00,,---,0.00,VWS V14.01,2013-12-07 08:20:00,
2013-12-07 03:23:00,64.8,60.8,30.15,South,170,0.0,0.0,87,0.00,,---,0.00,VWS V14.01,2013-12-07 08:23:00,
2013-12-07 03:28:00,64.7,61.1,30.15,South,171,0.0,0.0,88,0.00,,---,0.00,VWS V14.01,2013-12-07 08:28:00,
2013-12-07 03:30:00,64.7,61.1,30.15,South,170,0.0,0.0,88,0.00,,---,0.00,VWS V14.01,2013-12-07 08:30:00,
2013-12-07 03:33:00,64.5,60.9,30.15,South,170,0.0,0.0,88,0.00,,---,0.00,VWS V14.01,2013-12-07 08:33:00,
2013-12-07 03:39:00,64.3,60.7,30.15,South,170,0.0,0.0,88,0.00,,---,0.00,VWS V14.01,2013-12-07 08:39:00,
2013-12-07 03:40:00,64.3,60.7,30.15,South,170,0.0,0.0,88,0.00,,---,0.00,VWS V14.01,2013-12-07 08:40:00,
2013-12-07 03:44:00,64.3,60.7,30.15,South,170,0.0,0.0,88,0.00,,---,0.00,VWS V14.01,2013-12-07 08:44:00,
2013-12-07 03:49:00,64.3,60.7,30.15,South,171,0.0,0.0,88,0.00,,---,0.00,VWS V14.01,2013-12-07 08:49:00,
2013-12-07 03:50:00,64.3,60.7,30.15,South,170,0.0,0.0,88,0.00,,---,0.00,VWS V14.01,2013-12-07 08:50:00,
2013-12-07 03:54:00,64.3,60.7,30.16,South,170,0.0,0.0,88,0.00,,---,0.00,VWS V14.01,2013-12-07 08:54:00,
2013-12-07 03:59:00,64.2,60.6,30.16,South,171,0.0,0.0,88,0.00,,---,0.00,VWS V14.01,2013-12-07 08:59:00,
2013-12-07 04:00:00,64.2,60.6,30.16,South,170,0.0,0.0,88,0.00,,---,0.00,VWS V14.01,2013-12-07 09:00:00,
2013-12-07 04:04:00,64.4,60.8,30.16,South,170,0.0,0.0,88,0.00,,---,0.00,VWS V14.01,2013-12-07 09:04:00,
2013-12-07 04:09:00,64.4,60.8,30.16,South,170,0.0,0.0,88,0.00,,---,0.00,VWS V14.01,2013-12-07 09:09:00,
2013-12-07 04:10:00,64.4,60.8,30.16,South,170,0.0,0.0,88,0.00,,---,0.00,VWS V14.01,2013-12-07 09:10:00,
2013-12-07 04:14:00,64.3,60.3,30.16,South,171,0.0,0.0,87,0.00,,---,0.00,VWS V14.01,2013-12-07 09:14:00,
2013-12-07 04:19:00,64.2,60.3,30.15,South,170,0.0,0.0,87,0.00,,---,0.00,VWS V14.01,2013-12-07 09:19:00,
2013-12-07 04:20:00,64.2,60.3,30.15,South,170,0.0,0.0,87,0.00,,---,0.00,VWS V14.01,2013-12-07 09:20:00,
2013-12-07 04:24:00,64.2,60.6,30.15,South,171,0.0,0.0,88,0.00,,---,0.00,VWS V14.01,2013-12-07 09:24:00,
2013-12-07 04:29:00,64.3,60.7,30.15,South,170,0.0,0.0,88,0.00,,---,0.00,VWS V14.01,2013-12-07 09:29:00,
2013-12-07 04:30:00,64.2,60.6,30.15,South,170,0.0,0.0,88,0.00,,---,0.00,VWS V14.01,2013-12-07 09:30:00,
2013-12-07 04:34:00,64.2,60.6,30.15,South,171,0.0,0.0,88,0.00,,---,0.00,VWS V14.01,2013-12-07 09:34:00,
2013-12-07 04:39:00,64.2,60.6,30.15,South,170,0.0,0.0,88,0.00,,---,0.00,VWS V14.01,2013-12-07 09:39:00,
2013-12-07 04:40:00,64.3,60.7,30.15,South,170,0.0,0.0,88,0.00,,---,0.00,VWS V14.01,2013-12-07 09:40:00,
2013-12-07 04:44:00,64.2,60.6,30.15,South,170,0.0,0.0,88,0.00,,---,0.00,VWS V14.01,2013-12-07 09:44:00,
2013-12-07 04:49:00,64.3,60.7,30.16,South,171,0.0,0.0,88,0.00,,---,0.00,VWS V14.01,2013-12-07 09:49:00,
2013-12-07 04:50:00,64.3,60.7,30.16,South,170,0.0,0.0,88,0.00,,---,0.00,VWS V14.01,2013-12-07 09:50:00,
2013-12-07 04:54:00,64.4,60.8,30.15,South,171,0.0,0.0,88,0.00,,---,0.00,VWS V14.01,2013-12-07 09:54:00,
2013-12-07 04:59:00,64.4,60.8,30.16,South,170,0.0,0.0,88,0.00,,---,0.00,VWS V14.01,2013-12-07 09:59:00,
2013-12-07 05:00:00,64.4,60.8,30.16,South,171,0.0,0.0,88,0.00,,---,0.00,VWS V14.01,2013-12-07 10:00:00,
2013-12-07 05:04:00,64.3,60.7,30.16,South,170,0.0,0.0,88,0.00,,---,0.00,VWS V14.01,2013-12-07 10:04:00,
2013-12-07 05:09:00,64.2,60.6,30.16,South,171,0.0,0.0,88,0.00,,---,0.00,VWS V14.01,2013-12-07 10:09:00,
2013-12-07 05:10:00,64.2,60.6,30.16,South,171,0.0,0.0,88,0.00,,---,0.00,VWS V14.01,2013-12-07 10:10:00,
2013-12-07 05:14:00,64.1,60.5,30.16,South,170,0.0,0.0,88,0.00,,---,0.00,VWS V14.01,2013-12-07 10:14:00,
2013-12-07 05:19:00,64.1,60.5,30.16,South,170,0.0,0.0,88,0.00,,---,0.00,VWS V14.01,2013-12-07 10:19:00,
2013-12-07 05:20:00,64.1,60.5,30.16,South,170,0.0,0.0,88,0.00,,---,0.00,VWS V14.01,2013-12-07 10:20:00,
2013-12-07 05:24:00,64.2,60.6,30.16,South,170,0.0,0.0,88,0.00,,---,0.00,VWS V14.01,2013-12-07 10:24:00,
2013-12-07 05:29:00,64.2,60.6,30.16,South,170,0.0,0.0,88,0.00,,---,0.00,VWS V14.01,2013-12-07 10:29:00,
2013-12-07 05:30:00,64.2,60.6,30.16,South,170,0.0,0.0,88,0.00,,---,0.00,VWS V14.01,2013-12-07 10:30:00,
2013-12-07 05:34:00,64.0,60.4,30.16,South,170,0.0,0.0,88,0.00,,---,0.00,VWS V14.01,2013-12-07 10:34:00,
2013-12-07 05:39:00,63.9,60.3,30.16,South,170,0.0,0.0,88,0.00,,---,0.00,VWS V14.01,2013-12-07 10:39:00,
2013-12-07 05:40:00,63.9,60.3,30.16,South,170,0.0,0.0,88,0.00,,---,0.00,VWS V14.01,2013-12-07 10:40:00,
2013-12-07 05:44:00,63.8,60.2,30.17,South,170,0.0,0.0,88,0.00,,---,0.00,VWS V14.01,2013-12-07 10:44:00,
2013-12-07 05:49:00,63.7,60.1,30.17,South,170,0.0,0.0,88,0.00,,---,0.00,VWS V14.01,2013-12-07 10:49:00,
2013-12-07 05:50:00,63.7,60.1,30.17,South,171,0.0,0.0,88,0.00,,---,0.00,VWS V14.01,2013-12-07 10:50:00,
2013-12-07 05:54:00,63.7,60.1,30.17,South,171,0.0,0.0,88,0.00,,---,0.00,VWS V14.01,2013-12-07 10:54:00,
2013-12-07 05:59:00,63.6,60.0,30.17,South,170,0.0,0.0,88,0.00,,---,0.00,VWS V14.01,2013-12-07 10:59:00,
2013-12-07 06:00:00,63.6,60.0,30.17,South,170,0.0,0.0,88,0.00,,---,0.00,VWS V14.01,2013-12-07 11:00:00,
2013-12-07 06:04:00,63.7,60.1,30.18,South,170,0.0,0.0,88,0.00,,---,0.00,VWS V14.01,2013-12-07 11:04:00,
2013-12-07 06:09:00,63.7,60.1,30.18,South,170,0.0,0.0,88,0.00,,---,0.00,VWS V14.01,2013-12-07 11:09:00,
2013-12-07 06:10:00,63.7,60.1,30.18,South,171,0.0,0.0,88,0.00,,---,0.00,VWS V14.01,2013-12-07 11:10:00,
2013-12-07 06:14:00,63.8,60.2,30.18,South,170,0.0,0.0,88,0.00,,---,0.00,VWS V14.01,2013-12-07 11:14:00,
2013-12-07 06:20:00,64.0,60.4,30.18,South,170,0.0,0.0,88,0.00,,---,0.00,VWS V14.01,2013-12-07 11:20:00,
2013-12-07 06:25:00,64.0,60.4,30.18,South,171,0.0,0.0,88,0.00,,---,0.00,VWS V14.01,2013-12-07 11:25:00,
2013-12-07 06:30:00,63.9,60.3,30.18,South,170,0.0,0.0,88,0.00,,---,0.00,VWS V14.01,2013-12-07 11:30:00,
2013-12-07 06:35:00,64.0,60.4,30.18,South,170,0.0,0.0,88,0.00,,---,0.00,VWS V14.01,2013-12-07 11:35:00,
2013-12-07 06:40:00,64.0,60.4,30.19,South,171,0.0,0.0,88,0.00,,---,0.00,VWS V14.01,2013-12-07 11:40:00,
2013-12-07 06:45:00,63.9,60.3,30.19,South,170,0.0,0.0,88,0.00,,---,0.00,VWS V14.01,2013-12-07 11:45:00,
2013-12-07 06:50:00,63.9,60.3,30.19,South,171,0.0,0.0,88,0.00,,---,0.00,VWS V14.01,2013-12-07 11:50:00,
2013-12-07 06:55:00,64.0,60.4,30.19,South,171,0.0,0.0,88,0.00,,---,0.00,VWS V14.01,2013-12-07 11:55:00,
2013-12-07 07:00:00,64.0,60.4,30.19,South,170,0.0,0.0,88,0.00,,---,0.00,VWS V14.01,2013-12-07 12:00:00,
2013-12-07 07:05:00,64.1,60.5,30.19,South,170,0.0,0.0,88,0.00,,---,0.00,VWS V14.01,2013-12-07 12:05:00,
2013-12-07 07:10:00,64.2,60.6,30.20,South,171,0.0,0.0,88,0.00,,---,0.00,VWS V14.01,2013-12-07 12:10:00,
2013-12-07 07:15:00,64.3,60.7,30.20,South,170,0.0,0.0,88,0.00,,---,0.00,VWS V14.01,2013-12-07 12:15:00,
2013-12-07 07:20:00,64.1,60.5,30.20,South,170,0.0,0.0,88,0.00,,---,0.00,VWS V14.01,2013-12-07 12:20:00,
2013-12-07 07:25:00,64.0,60.4,30.20,South,170,0.0,0.0,88,0.00,,---,0.00,VWS V14.01,2013-12-07 12:25:00,
2013-12-07 07:30:00,64.2,60.6,30.21,South,170,0.0,0.0,88,0.00,,---,0.00,VWS V14.01,2013-12-07 12:30:00,
2013-12-07 07:35:00,64.4,60.8,30.21,South,171,0.0,0.0,88,0.00,,---,0.00,VWS V14.01,2013-12-07 12:35:00,
2013-12-07 07:40:00,64.5,60.9,30.21,South,170,0.0,0.0,88,0.00,,---,0.00,VWS V14.01,2013-12-07 12:40:00,
2013-12-07 07:45:00,64.6,61.0,30.21,South,171,0.0,0.0,88,0.00,,---,0.00,VWS V14.01,2013-12-07 12:45:00,
2013-12-07 07:50:00,64.9,61.3,30.21,South,170,0.0,0.0,88,0.00,,---,0.00,VWS V14.01,2013-12-07 12:50:00,
2013-12-07 07:55:00,65.2,61.6,30.21,South,171,0.0,0.0,88,0.00,,---,0.00,VWS V14.01,2013-12-07 12:55:00,
2013-12-07 08:00:00,65.5,61.9,30.21,South,170,0.0,0.0,88,0.00,,---,0.00,VWS V14.01,2013-12-07 13:00:00,
2013-12-07 08:05:00,65.7,62.0,30.21,South,171,0.0,0.0,88,0.00,,---,0.00,VWS V14.01,2013-12-07 13:05:00,
2013-12-07 08:10:00,65.9,62.2,30.22,South,170,0.0,0.0,88,0.00,,---,0.00,VWS V14.01,2013-12-07 13:10:00,
2013-12-07 08:15:00,66.2,62.5,30.22,South,170,0.0,0.0,88,0.00,,---,0.00,VWS V14.01,2013-12-07 13:15:00,
2013-12-07 08:20:00,66.6,62.9,30.22,SSE,153,0.0,0.0,88,0.00,,---,0.00,VWS V14.01,2013-12-07 13:20:00,
2013-12-07 08:25:00,67.1,63.4,30.22,SSE,154,0.0,0.0,88,0.00,,---,0.00,VWS V14.01,2013-12-07 13:25:00,
2013-12-07 08:30:00,67.5,63.8,30.22,SSE,152,0.0,0.0,88,0.00,,---,0.00,VWS V14.01,2013-12-07 13:30:00,
2013-12-07 08:35:00,67.6,63.9,30.22,SSE,152,0.0,0.0,88,0.00,,---,0.00,VWS V14.01,2013-12-07 13:35:00,
2013-12-07 08:40:00,67.7,63.7,30.22,ESE,111,0.0,0.0,87,0.00,,---,0.00,VWS V14.01,2013-12-07 13:40:00,
2013-12-07 08:46:00,67.9,63.9,30.22,ESE,112,0.0,0.0,87,0.00,,---,0.00,VWS V14.01,2013-12-07 13:46:00,
2013-12-07 08:50:00,68.2,64.2,30.22,WSW,238,0.0,2.0,87,0.00,,---,0.00,VWS V14.01,2013-12-07 13:50:00,
2013-12-07 08:51:00,68.3,64.3,30.22,WSW,238,0.0,0.0,87,0.00,,---,0.00,VWS V14.01,2013-12-07 13:51:00,
2013-12-07 08:56:00,68.7,64.7,30.23,ESE,105,0.0,1.0,87,0.00,,---,0.00,VWS V14.01,2013-12-07 13:56:00,
2013-12-07 09:00:00,69.1,65.1,30.22,East,86,1.0,1.0,87,0.00,,---,0.00,VWS V14.01,2013-12-07 14:00:00,
2013-12-07 09:01:00,69.1,64.7,30.22,ESE,118,0.0,1.0,86,0.00,,---,0.00,VWS V14.01,2013-12-07 14:01:00,
2013-12-07 09:06:00,69.6,65.2,30.23,West,276,0.0,1.0,86,0.00,,---,0.00,VWS V14.01,2013-12-07 14:06:00,
2013-12-07 09:10:00,70.0,65.6,30.23,WSW,240,0.0,1.0,86,0.00,,---,0.00,VWS V14.01,2013-12-07 14:10:00,
2013-12-07 09:11:00,70.2,65.8,30.23,WSW,240,0.0,0.0,86,0.00,,---,0.00,VWS V14.01,2013-12-07 14:11:00,
2013-12-07 09:16:00,70.6,66.6,30.23,SSW,197,0.0,1.0,87,0.00,,---,0.00,VWS V14.01,2013-12-07 14:16:00,
2013-12-07 09:20:00,71.3,67.2,30.23,SSE,167,0.0,1.0,87,0.00,,---,0.00,VWS V14.01,2013-12-07 14:20:00,
2013-12-07 09:21:00,71.6,67.5,30.23,SSE,167,0.0,0.0,87,0.00,,---,0.00,VWS V14.01,2013-12-07 14:21:00,
2013-12-07 09:26:00,72.6,68.5,30.23,East,85,0.0,0.0,87,0.00,,---,0.00,VWS V14.01,2013-12-07 14:26:00,
2013-12-07 09:30:00,73.3,68.9,30.23,West,264,0.0,0.0,86,0.00,,---,0.00,VWS V14.01,2013-12-07 14:30:00,
2013-12-07 09:31:00,73.5,68.7,30.23,SSW,212,0.0,0.0,85,0.00,,---,0.00,VWS V14.01,2013-12-07 14:31:00,
2013-12-07 09:36:00,74.2,69.1,30.23,SW,214,0.0,0.0,84,0.00,,---,0.00,VWS V14.01,2013-12-07 14:36:00,
2013-12-07 09:40:00,74.7,68.8,30.24,SSE,165,0.0,1.0,82,0.00,,---,0.00,VWS V14.01,2013-12-07 14:40:00,
2013-12-07 09:41:00,75.0,69.1,30.24,ESE,113,0.0,1.0,82,0.00,,---,0.00,VWS V14.01,2013-12-07 14:41:00,
2013-12-07 09:46:00,75.7,69.1,30.24,ENE,60,0.0,1.0,80,0.00,,---,0.00,VWS V14.01,2013-12-07 14:46:00,
2013-12-07 09:50:00,76.0,69.0,30.24,East,94,0.0,2.0,79,0.00,,---,0.00,VWS V14.01,2013-12-07 14:50:00,
2013-12-07 09:51:00,76.0,68.7,30.24,East,91,0.0,3.0,78,0.00,,---,0.00,VWS V14.01,2013-12-07 14:51:00,
2013-12-07 09:56:00,76.1,69.1,30.24,East,82,0.0,3.0,79,0.00,,---,0.00,VWS V14.01,2013-12-07 14:56:00,
2013-12-07 10:00:00,76.5,69.5,30.24,East,80,0.0,3.0,79,0.00,,---,0.00,VWS V14.01,2013-12-07 15:00:00,
2013-12-07 10:01:00,76.6,69.2,30.24,East,79,0.0,1.0,78,0.00,,---,0.00,VWS V14.01,2013-12-07 15:01:00,
2013-12-07 10:06:00,77.1,69.3,30.24,NNW,345,0.0,1.0,77,0.00,,---,0.00,VWS V14.01,2013-12-07 15:06:00,
2013-12-07 10:10:00,77.2,69.4,30.24,WSW,245,0.0,1.0,77,0.00,,---,0.00,VWS V14.01,2013-12-07 15:10:00,
2013-12-07 10:11:00,77.2,69.1,30.24,WNW,301,0.0,1.0,76,0.00,,---,0.00,VWS V14.01,2013-12-07 15:11:00,
2013-12-07 10:16:00,77.3,69.5,30.24,SSE,166,0.0,1.0,77,0.00,,---,0.00,VWS V14.01,2013-12-07 15:16:00,
2013-12-07 10:20:00,77.7,69.5,30.24,WNW,295,0.0,1.0,76,0.00,,---,0.00,VWS V14.01,2013-12-07 15:20:00,
2013-12-07 10:21:00,77.9,69.7,30.24,WNW,295,0.0,0.0,76,0.00,,---,0.00,VWS V14.01,2013-12-07 15:21:00,
2013-12-07 10:26:00,78.4,69.8,30.24,ESE,119,0.0,2.0,75,0.00,,---,0.00,VWS V14.01,2013-12-07 15:26:00,
2013-12-07 10:30:00,78.7,70.1,30.24,ESE,106,0.0,2.0,75,0.00,,---,0.00,VWS V14.01,2013-12-07 15:30:00,
2013-12-07 10:31:00,78.9,69.9,30.24,WNW,294,1.0,1.0,74,0.00,,---,0.00,VWS V14.01,2013-12-07 15:31:00,
2013-12-07 10:36:00,79.0,69.6,30.24,WSW,256,0.0,2.0,73,0.00,,---,0.00,VWS V14.01,2013-12-07 15:36:00,
2013-12-07 10:40:00,79.2,69.8,30.24,SE,138,0.0,2.0,73,0.00,,---,0.00,VWS V14.01,2013-12-07 15:40:00,
2013-12-07 10:41:00,79.3,69.9,30.24,WNW,295,0.0,3.0,73,0.00,,---,0.00,VWS V14.01,2013-12-07 15:41:00,
2013-12-07 10:47:00,79.8,70.0,30.23,NW,318,1.0,3.0,72,0.00,,---,0.00,VWS V14.01,2013-12-07 15:47:00,
2013-12-07 10:50:00,79.8,69.2,30.23,NW,323,0.0,3.0,70,0.00,,---,0.00,VWS V14.01,2013-12-07 15:50:00,
2013-12-07 10:52:00,79.8,69.6,30.23,ENE,60,1.0,2.0,71,0.00,,---,0.00,VWS V14.01,2013-12-07 15:52:00,
2013-12-07 10:57:00,80.2,69.9,30.23,East,84,1.0,2.0,71,0.00,,---,0.00,VWS V14.01,2013-12-07 15:57:00,
2013-12-07 11:00:00,80.4,69.7,30.23,NNE,32,1.0,3.0,70,0.00,,---,0.00,VWS V14.01,2013-12-07 16:00:00,
2013-12-07 11:02:00,80.5,69.4,30.23,NE,42,0.0,1.0,69,0.00,,---,0.00,VWS V14.01,2013-12-07 16:02:00,
2013-12-07 11:07:00,80.8,70.1,30.23,WNW,290,1.0,2.0,70,0.00,,---,0.00,VWS V14.01,2013-12-07 16:07:00,
2013-12-07 11:10:00,80.8,69.7,30.23,NW,316,0.0,2.0,69,0.00,,---,0.00,VWS V14.01,2013-12-07 16:10:00,
2013-12-07 11:12:00,80.8,69.7,30.23,East,89,0.0,2.0,69,0.00,,---,0.00,VWS V14.01,2013-12-07 16:12:00,
2013-12-07 11:17:00,80.8,69.3,30.22,ENE,72,0.0,3.0,68,0.00,,---,0.00,VWS V14.01,2013-12-07 16:17:00,
2013-12-07 11:20:00,81.0,69.9,30.23,ENE,72,0.0,3.0,69,0.00,,---,0.00,VWS V14.01,2013-12-07 16:20:00,
2013-12-07 11:22:00,81.2,70.1,30.22,SSW,193,0.0,0.0,69,0.00,,---,0.00,VWS V14.01,2013-12-07 16:22:00,
2013-12-07 11:27:00,81.3,69.7,30.22,West,273,0.0,1.0,68,0.00,,---,0.00,VWS V14.01,2013-12-07 16:27:00,
2013-12-07 11:30:00,81.3,69.7,30.22,SSE,150,0.0,2.0,68,0.00,,---,0.00,VWS V14.01,2013-12-07 16:30:00,
2013-12-07 11:32:00,81.4,69.4,30.22,East,85,0.0,2.0,67,0.00,,---,0.00,VWS V14.01,2013-12-07 16:32:00,
2013-12-07 11:37:00,81.6,68.7,30.21,WSW,239,1.0,3.0,65,0.00,,---,0.00,VWS V14.01,2013-12-07 16:37:00,
2013-12-07 11:40:00,81.8,69.3,30.21,WSW,245,0.0,3.0,66,0.00,,---,0.00,VWS V14.01,2013-12-07 16:40:00,
2013-12-07 11:42:00,82.0,69.5,30.21,SW,231,0.0,3.0,66,0.00,,---,0.00,VWS V14.01,2013-12-07 16:42:00,
2013-12-07 11:47:00,82.4,69.0,30.21,SSW,207,0.0,3.0,64,0.00,,---,0.00,VWS V14.01,2013-12-07 16:47:00,
2013-12-07 11:50:00,82.6,69.7,30.21,ESE,102,0.0,3.0,65,0.00,,---,0.00,VWS V14.01,2013-12-07 16:50:00,
2013-12-07 11:52:00,82.6,69.2,30.21,ESE,108,0.0,2.0,64,0.00,,---,0.00,VWS V14.01,2013-12-07 16:52:00,
2013-12-07 11:57:00,82.8,69.8,30.20,East,99,0.0,2.0,65,0.00,,---,0.00,VWS V14.01,2013-12-07 16:57:00,
2013-12-07 12:00:00,83.0,70.5,30.20,ESE,110,0.0,2.0,66,0.00,,---,0.00,VWS V14.01,2013-12-07 17:00:00,
2013-12-07 12:02:00,83.2,69.8,30.20,East,80,2.0,2.0,64,0.00,,---,0.00,VWS V14.01,2013-12-07 17:02:00,
2013-12-07 12:07:00,83.5,70.1,30.20,East,101,0.0,2.0,64,0.00,,---,0.00,VWS V14.01,2013-12-07 17:07:00,
2013-12-07 12:10:00,83.3,69.9,30.20,East,87,0.0,2.0,64,0.00,,---,0.00,VWS V14.01,2013-12-07 17:10:00,
2013-12-07 12:12:00,83.1,69.7,30.20,East,87,0.0,2.0,64,0.00,,---,0.00,VWS V14.01,2013-12-07 17:12:00,
2013-12-07 12:17:00,83.5,70.1,30.19,East,80,0.0,2.0,64,0.00,,---,0.00,VWS V14.01,2013-12-07 17:17:00,
2013-12-07 12:20:00,83.6,69.7,30.19,South,181,0.0,2.0,63,0.00,,---,0.00,VWS V14.01,2013-12-07 17:20:00,
2013-12-07 12:22:00,83.6,69.2,30.19,WNW,283,0.0,3.0,62,0.00,,---,0.00,VWS V14.01,2013-12-07 17:22:00,
2013-12-07 12:27:00,83.7,69.8,30.19,SSW,200,1.0,3.0,63,0.00,,---,0.00,VWS V14.01,2013-12-07 17:27:00,
2013-12-07 12:30:00,83.8,69.4,30.19,SW,214,0.0,3.0,62,0.00,,---,0.00,VWS V14.01,2013-12-07 17:30:00,
2013-12-07 12:32:00,84.0,70.5,30.19,West,269,0.0,0.0,64,0.00,,---,0.00,VWS V14.01,2013-12-07 17:32:00,
2013-12-07 12:37:00,83.8,69.9,30.18,ESE,113,0.0,2.0,63,0.00,,---,0.00,VWS V14.01,2013-12-07 17:37:00,
2013-12-07 12:40:00,83.8,69.4,30.18,East,100,0.0,2.0,62,0.00,,---,0.00,VWS V14.01,2013-12-07 17:40:00,
2013-12-07 12:42:00,83.9,69.5,30.18,East,100,0.0,0.0,62,0.00,,---,0.00,VWS V14.01,2013-12-07 17:42:00,
2013-12-07 12:47:00,84.2,70.2,30.18,WNW,287,0.0,0.0,63,0.00,,---,0.00,VWS V14.01,2013-12-07 17:47:00,
2013-12-07 12:50:00,84.1,69.2,30.17,WSW,248,0.0,2.0,61,0.00,,---,0.00,VWS V14.01,2013-12-07 17:50:00,
2013-12-07 12:52:00,84.3,70.3,30.17,SSW,207,0.0,1.0,63,0.00,,---,0.00,VWS V14.01,2013-12-07 17:52:00,
2013-12-07 12:57:00,84.3,69.4,30.17,West,274,2.0,2.0,61,0.00,,---,0.00,VWS V14.01,2013-12-07 17:57:00,
2013-12-07 13:00:00,84.1,69.2,30.17,WNW,295,0.0,2.0,61,0.00,,---,0.00,VWS V14.01,2013-12-07 18:00:00,
2013-12-07 13:02:00,84.1,69.2,30.17,West,275,0.0,1.0,61,0.00,,---,0.00,VWS V14.01,2013-12-07 18:02:00,
2013-12-07 13:07:00,84.7,69.3,30.17,East,79,0.0,2.0,60,0.00,,---,0.00,VWS V14.01,2013-12-07 18:07:00,
2013-12-07 13:10:00,85.0,70.1,30.17,East,85,1.0,2.0,61,0.00,,---,0.00,VWS V14.01,2013-12-07 18:10:00,
2013-12-07 13:12:00,85.1,68.7,30.17,South,173,0.0,2.0,58,0.00,,---,0.00,VWS V14.01,2013-12-07 18:12:00,
2013-12-07 13:17:00,85.2,69.3,30.17,South,188,0.0,2.0,59,0.00,,---,0.00,VWS V14.01,2013-12-07 18:17:00,
2013-12-07 13:20:00,85.4,69.4,30.16,South,189,0.0,2.0,59,0.00,,---,0.00,VWS V14.01,2013-12-07 18:20:00,
2013-12-07 13:22:00,85.4,69.0,30.16,ENE,75,0.0,2.0,58,0.00,,---,0.00,VWS V14.01,2013-12-07 18:22:00,
2013-12-07 13:28:00,84.9,69.0,30.16,West,281,1.0,2.0,59,0.00,,---,0.00,VWS V14.01,2013-12-07 18:28:00,
2013-12-07 13:30:00,84.8,68.9,30.16,West,271,0.0,2.0,59,0.00,,---,0.00,VWS V14.01,2013-12-07 18:30:00,
2013-12-07 13:33:00,84.8,69.4,30.16,NNW,335,0.0,3.0,60,0.00,,---,0.00,VWS V14.01,2013-12-07 18:33:00,
2013-12-07 13:38:00,85.3,69.4,30.16,West,267,1.0,3.0,59,0.00,,---,0.00,VWS V14.01,2013-12-07 18:38:00,
2013-12-07 13:40:00,85.4,69.4,30.16,East,92,0.0,3.0,59,0.00,,---,0.00,VWS V14.01,2013-12-07 18:40:00,
2013-12-07 13:43:00,85.7,69.2,30.15,WSW,248,0.0,1.0,58,0.00,,---,0.00,VWS V14.01,2013-12-07 18:43:00,
2013-12-07 13:48:00,85.9,68.9,30.15,East,91,1.0,2.0,57,0.00,,---,0.00,VWS V14.01,2013-12-07 18:48:00,
2013-12-07 13:50:00,85.9,69.4,30.15,NW,318,0.0,2.0,58,0.00,,---,0.00,VWS V14.01,2013-12-07 18:50:00,
2013-12-07 13:53:00,86.0,69.5,30.15,North,6,0.0,1.0,58,0.00,,---,0.00,VWS V14.01,2013-12-07 18:53:00,
2013-12-07 13:58:00,85.9,69.4,30.15,ESE,115,0.0,2.0,58,0.00,,---,0.00,VWS V14.01,2013-12-07 18:58:00,
2013-12-07 14:00:00,85.8,69.3,30.15,East,97,0.0,4.0,58,0.00,,---,0.00,VWS V14.01,2013-12-07 19:00:00,
2013-12-07 14:03:00,85.2,69.3,30.15,East,84,2.0,4.0,59,0.00,,---,0.00,VWS V14.01,2013-12-07 19:03:00,
2013-12-07 14:08:00,84.4,69.0,30.15,East,80,1.0,5.0,60,0.00,,---,0.00,VWS V14.01,2013-12-07 19:08:00,
2013-12-07 14:10:00,84.1,69.2,30.15,East,101,1.0,5.0,61,0.00,,---,0.00,VWS V14.01,2013-12-07 19:10:00,
2013-12-07 14:13:00,84.0,68.6,30.15,ESE,122,0.0,3.0,60,0.00,,---,0.00,VWS V14.01,2013-12-07 19:13:00,
2013-12-07 14:18:00,83.7,68.8,30.14,ENE,77,0.0,4.0,61,0.00,,---,0.00,VWS V14.01,2013-12-07 19:18:00,
2013-12-07 14:20:00,83.6,68.7,30.14,East,91,1.0,4.0,61,0.00,,---,0.00,VWS V14.01,2013-12-07 19:20:00,
2013-12-07 14:23:00,83.9,70.0,30.15,ESE,115,1.0,1.0,63,0.00,,---,0.00,VWS V14.01,2013-12-07 19:23:00,
2013-12-07 14:28:00,84.6,68.7,30.14,ENE,71,0.0,1.0,59,0.00,,---,0.00,VWS V14.01,2013-12-07 19:28:00,
2013-12-07 14:30:00,84.5,68.6,30.14,ENE,72,2.0,3.0,59,0.00,,---,0.00,VWS V14.01,2013-12-07 19:30:00,
2013-12-07 14:33:00,83.8,68.4,30.14,East,88,1.0,5.0,60,0.00,,---,0.00,VWS V14.01,2013-12-07 19:33:00,
2013-12-07 14:38:00,83.4,68.6,30.14,ENE,76,2.0,5.0,61,0.00,,---,0.00,VWS V14.01,2013-12-07 19:38:00,
2013-12-07 14:40:00,83.3,68.5,30.14,ENE,72,1.0,5.0,61,0.00,,---,0.00,VWS V14.01,2013-12-07 19:40:00,
2013-12-07 14:43:00,83.3,68.5,30.14,East,80,1.0,4.0,61,0.00,,---,0.00,VWS V14.01,2013-12-07 19:43:00,
2013-12-07 14:48:00,83.1,68.3,30.14,SE,132,0.0,4.0,61,0.00,,---,0.00,VWS V14.01,2013-12-07 19:48:00,
2013-12-07 14:50:00,82.9,68.1,30.14,ENE,64,1.0,4.0,61,0.00,,---,0.00,VWS V14.01,2013-12-07 19:50:00,
2013-12-07 14:53:00,82.7,68.4,30.14,East,99,1.0,2.0,62,0.00,,---,0.00,VWS V14.01,2013-12-07 19:53:00,
2013-12-07 14:58:00,82.4,68.1,30.14,ESE,108,1.0,2.0,62,0.00,,---,0.00,VWS V14.01,2013-12-07 19:58:00,
2013-12-07 15:00:00,82.3,67.5,30.14,ESE,117,3.0,3.0,61,0.00,,---,0.00,VWS V14.01,2013-12-07 20:00:00,
2013-12-07 15:03:00,81.9,68.1,30.14,South,184,0.0,3.0,63,0.00,,---,0.00,VWS V14.01,2013-12-07 20:03:00,
2013-12-07 15:08:00,81.9,68.1,30.14,ESE,107,0.0,3.0,63,0.00,,---,0.00,VWS V14.01,2013-12-07 20:08:00,
2013-12-07 15:10:00,81.9,68.1,30.14,ESE,105,0.0,3.0,63,0.00,,---,0.00,VWS V14.01,2013-12-07 20:10:00,
2013-12-07 15:13:00,82.1,68.3,30.13,East,89,0.0,1.0,63,0.00,,---,0.00,VWS V14.01,2013-12-07 20:13:00,
2013-12-07 15:18:00,82.2,68.4,30.13,East,86,0.0,1.0,63,0.00,,---,0.00,VWS V14.01,2013-12-07 20:18:00,
2013-12-07 15:20:00,82.3,68.0,30.13,East,86,0.0,1.0,62,0.00,,---,0.00,VWS V14.01,2013-12-07 20:20:00,
2013-12-07 15:23:00,82.4,67.6,30.13,East,87,1.0,1.0,61,0.00,,---,0.00,VWS V14.01,2013-12-07 20:23:00,
2013-12-07 15:28:00,82.2,67.4,30.13,East,96,0.0,4.0,61,0.00,,---,0.00,VWS V14.01,2013-12-07 20:28:00,
2013-12-07 15:30:00,82.1,67.8,30.13,East,96,0.0,4.0,62,0.00,,---,0.00,VWS V14.01,2013-12-07 20:30:00,
2013-12-07 15:33:00,82.0,67.2,30.13,ENE,68,2.0,4.0,61,0.00,,---,0.00,VWS V14.01,2013-12-07 20:33:00,
2013-12-07 15:38:00,81.4,67.1,30.13,East,96,0.0,4.0,62,0.00,,---,0.00,VWS V14.01,2013-12-07 20:38:00,
2013-12-07 15:40:00,81.3,67.1,30.13,ESE,110,0.0,4.0,62,0.00,,---,0.00,VWS V14.01,2013-12-07 20:40:00,
2013-12-07 15:43:00,81.3,67.5,30.13,ESE,103,1.0,2.0,63,0.00,,---,0.00,VWS V14.01,2013-12-07 20:43:00,
2013-12-07 15:48:00,81.3,67.1,30.13,East,80,2.0,3.0,62,0.00,,---,0.00,VWS V14.01,2013-12-07 20:48:00,
2013-12-07 15:50:00,81.3,67.1,30.13,ESE,108,2.0,4.0,62,0.00,,---,0.00,VWS V14.01,2013-12-07 20:50:00,
2013-12-07 15:53:00,81.4,66.7,30.13,ENE,76,2.0,3.0,61,0.00,,---,0.00,VWS V14.01,2013-12-07 20:53:00,
2013-12-07 15:58:00,81.4,66.2,30.14,East,100,0.0,4.0,60,0.00,,---,0.00,VWS V14.01,2013-12-07 20:58:00,
2013-12-07 16:00:00,81.4,66.2,30.14,East,101,1.0,4.0,60,0.00,,---,0.00,VWS V14.01,2013-12-07 21:00:00,
2013-12-07 16:04:00,81.4,66.2,30.14,ESE,110,1.0,4.0,60,0.00,,---,0.00,VWS V14.01,2013-12-07 21:04:00,
2013-12-07 16:09:00,81.3,66.1,30.14,ENE,75,2.0,4.0,60,0.00,,---,0.00,VWS V14.01,2013-12-07 21:09:00,
2013-12-07 16:10:00,81.3,66.1,30.14,East,89,1.0,4.0,60,0.00,,---,0.00,VWS V14.01,2013-12-07 21:10:00,
2013-12-07 16:14:00,81.2,66.0,30.14,ENE,78,1.0,3.0,60,0.00,,---,0.00,VWS V14.01,2013-12-07 21:14:00,
2013-12-07 16:19:00,81.1,65.4,30.14,East,91,1.0,5.0,59,0.00,,---,0.00,VWS V14.01,2013-12-07 21:19:00,
2013-12-07 16:20:00,81.1,65.4,30.14,ENE,75,1.0,5.0,59,0.00,,---,0.00,VWS V14.01,2013-12-07 21:20:00,
2013-12-07 16:24:00,81.0,65.3,30.14,ESE,104,1.0,3.0,59,0.00,,---,0.00,VWS V14.01,2013-12-07 21:24:00,
2013-12-07 16:29:00,80.8,64.7,30.14,East,93,0.0,3.0,58,0.00,,---,0.00,VWS V14.01,2013-12-07 21:29:00,
2013-12-07 16:30:00,80.8,64.7,30.14,East,84,2.0,3.0,58,0.00,,---,0.00,VWS V14.01,2013-12-07 21:30:00,
2013-12-07 16:34:00,80.7,65.1,30.14,East,83,2.0,2.0,59,0.00,,---,0.00,VWS V14.01,2013-12-07 21:34:00,
2013-12-07 16:39:00,80.5,64.9,30.14,ESE,113,1.0,2.0,59,0.00,,---,0.00,VWS V14.01,2013-12-07 21:39:00,
2013-12-07 16:40:00,80.4,64.8,30.14,East,94,0.0,2.0,59,0.00,,---,0.00,VWS V14.01,2013-12-07 21:40:00,
2013-12-07 16:44:00,80.3,65.2,30.14,East,99,1.0,2.0,60,0.00,,---,0.00,VWS V14.01,2013-12-07 21:44:00,
2013-12-07 16:49:00,80.1,65.0,30.14,East,99,0.0,2.0,60,0.00,,---,0.00,VWS V14.01,2013-12-07 21:49:00,
2013-12-07 16:50:00,80.1,65.0,30.14,East,99,1.0,2.0,60,0.00,,---,0.00,VWS V14.01,2013-12-07 21:50:00,
2013-12-07 16:54:00,79.8,65.2,30.14,East,95,0.0,1.0,61,0.00,,---,0.00,VWS V14.01,2013-12-07 21:54:00,
2013-12-07 16:59:00,79.5,65.3,30.14,ESE,107,0.0,1.0,62,0.00,,---,0.00,VWS V14.01,2013-12-07 21:59:00,
2013-12-07 17:00:00,79.5,65.3,30.14,ESE,108,0.0,1.0,62,0.00,,---,0.00,VWS V14.01,2013-12-07 22:00:00,
2013-12-07 17:04:00,79.2,65.1,30.14,SE,128,0.0,1.0,62,0.00,,---,0.00,VWS V14.01,2013-12-07 22:04:00,
2013-12-07 17:09:00,79.0,65.8,30.14,SE,127,0.0,1.0,64,0.00,,---,0.00,VWS V14.01,2013-12-07 22:09:00,
2013-12-07 17:10:00,78.9,65.7,30.14,SE,127,0.0,1.0,64,0.00,,---,0.00,VWS V14.01,2013-12-07 22:10:00,
2013-12-07 17:14:00,78.6,65.9,30.14,SE,127,0.0,0.0,65,0.00,,---,0.00,VWS V14.01,2013-12-07 22:14:00,
2013-12-07 17:19:00,78.1,65.8,30.15,SE,127,0.0,0.0,66,0.00,,---,0.00,VWS V14.01,2013-12-07 22:19:00,
2013-12-07 17:20:00,78.1,65.8,30.15,SE,127,0.0,0.0,66,0.00,,---,0.00,VWS V14.01,2013-12-07 22:20:00,
2013-12-07 17:24:00,77.7,65.9,30.15,SE,127,0.0,0.0,67,0.00,,---,0.00,VWS V14.01,2013-12-07 22:24:00,
2013-12-07 17:29:00,77.3,65.9,30.15,SE,127,0.0,0.0,68,0.00,,---,0.00,VWS V14.01,2013-12-07 22:29:00,
2013-12-07 17:30:00,77.2,65.8,30.15,SE,127,0.0,0.0,68,0.00,,---,0.00,VWS V14.01,2013-12-07 22:30:00,
2013-12-07 17:34:00,76.8,65.9,30.15,SE,127,0.0,0.0,69,0.00,,---,0.00,VWS V14.01,2013-12-07 22:34:00,
2013-12-07 17:39:00,76.4,65.9,30.15,SE,127,0.0,0.0,70,0.00,,---,0.00,VWS V14.01,2013-12-07 22:39:00,
2013-12-07 17:40:00,76.3,65.8,30.15,SE,127,0.0,0.0,70,0.00,,---,0.00,VWS V14.01,2013-12-07 22:40:00,
2013-12-07 17:44:00,76.0,65.9,30.15,SE,127,0.0,0.0,71,0.00,,---,0.00,VWS V14.01,2013-12-07 22:44:00,
2013-12-07 17:49:00,75.5,65.8,30.15,SE,127,0.0,0.0,72,0.00,,---,0.00,VWS V14.01,2013-12-07 22:49:00,
2013-12-07 17:50:00,75.5,65.8,30.15,SE,127,0.0,0.0,72,0.00,,---,0.00,VWS V14.01,2013-12-07 22:50:00,
2013-12-07 17:54:00,75.2,66.0,30.15,SE,127,0.0,0.0,73,0.00,,---,0.00,VWS V14.01,2013-12-07 22:54:00,
2013-12-07 17:59:00,74.8,65.6,30.15,SE,127,0.0,0.0,73,0.00,,---,0.00,VWS V14.01,2013-12-07 22:59:00,
2013-12-07 18:00:00,74.8,65.6,30.15,SE,127,0.0,0.0,73,0.00,,---,0.00,VWS V14.01,2013-12-07 23:00:00,
2013-12-07 18:04:00,74.4,65.6,30.15,SE,127,0.0,0.0,74,0.00,,---,0.00,VWS V14.01,2013-12-07 23:04:00,
2013-12-07 18:09:00,74.2,65.4,30.15,SE,127,0.0,0.0,74,0.00,,---,0.00,VWS V14.01,2013-12-07 23:09:00,
2013-12-07 18:10:00,74.2,65.4,30.15,SE,127,0.0,0.0,74,0.00,,---,0.00,VWS V14.01,2013-12-07 23:10:00,
2013-12-07 18:14:00,74.0,65.6,30.15,SE,127,0.0,0.0,75,0.00,,---,0.00,VWS V14.01,2013-12-07 23:14:00,
2013-12-07 18:19:00,73.7,65.3,30.16,SE,127,0.0,0.0,75,0.00,,---,0.00,VWS V14.01,2013-12-07 23:19:00,
2013-12-07 18:20:00,73.7,65.3,30.16,SE,127,0.0,0.0,75,0.00,,---,0.00,VWS V14.01,2013-12-07 23:20:00,
2013-12-07 18:24:00,73.5,65.1,30.16,SE,127,0.0,0.0,75,0.00,,---,0.00,VWS V14.01,2013-12-07 23:24:00,
2013-12-07 18:30:00,73.3,65.3,30.16,SE,127,0.0,0.0,76,0.00,,---,0.00,VWS V14.01,2013-12-07 23:30:00,
2013-12-07 18:35:00,73.1,65.1,30.16,SE,127,0.0,0.0,76,0.00,,---,0.00,VWS V14.01,2013-12-07 23:35:00,
2013-12-07 18:40:00,72.9,64.9,30.16,SE,127,0.0,0.0,76,0.00,,---,0.00,VWS V14.01,2013-12-07 23:40:00,
2013-12-07 18:45:00,72.7,64.7,30.16,SE,127,0.0,0.0,76,0.00,,---,0.00,VWS V14.01,2013-12-07 23:45:00,
2013-12-07 18:50:00,72.4,64.8,30.16,SE,127,0.0,0.0,77,0.00,,---,0.00,VWS V14.01,2013-12-07 23:50:00,
2013-12-07 18:55:00,72.2,64.6,30.16,SE,127,0.0,0.0,77,0.00,,---,0.00,VWS V14.01,2013-12-07 23:55:00,
2013-12-07 19:00:00,72.0,64.4,30.17,SE,127,0.0,0.0,77,0.00,,---,0.00,VWS V14.01,2013-12-08 00:00:00,
2013-12-07 19:05:00,71.7,64.5,30.17,SE,127,0.0,0.0,78,0.00,,---,0.00,VWS V14.01,2013-12-08 00:05:00,
2013-12-07 19:10:00,71.5,64.3,30.17,SE,127,0.0,0.0,78,0.00,,---,0.00,VWS V14.01,2013-12-08 00:10:00,
2013-12-07 19:15:00,71.2,64.0,30.17,SE,127,0.0,0.0,78,0.00,,---,0.00,VWS V14.01,2013-12-08 00:15:00,
2013-12-07 19:20:00,70.9,63.7,30.17,SE,127,0.0,0.0,78,0.00,,---,0.00,VWS V14.01,2013-12-08 00:20:00,
2013-12-07 19:25:00,70.5,63.7,30.17,SE,127,0.0,0.0,79,0.00,,---,0.00,VWS V14.01,2013-12-08 00:25:00,
2013-12-07 19:30:00,70.2,63.8,30.17,SE,127,0.0,0.0,80,0.00,,---,0.00,VWS V14.01,2013-12-08 00:30:00,
2013-12-07 19:35:00,70.0,63.5,30.17,SE,127,0.0,0.0,80,0.00,,---,0.00,VWS V14.01,2013-12-08 00:35:00,
2013-12-07 19:40:00,69.9,63.5,30.17,SE,127,0.0,0.0,80,0.00,,---,0.00,VWS V14.01,2013-12-08 00:40:00,
2013-12-07 19:45:00,69.7,63.6,30.17,SE,127,0.0,0.0,81,0.00,,---,0.00,VWS V14.01,2013-12-08 00:45:00,
2013-12-07 19:50:00,69.4,63.3,30.17,SE,127,0.0,0.0,81,0.00,,---,0.00,VWS V14.01,2013-12-08 00:50:00,
2013-12-07 19:55:00,68.9,62.8,30.17,SE,125,0.0,0.0,81,0.00,,---,0.00,VWS V14.01,2013-12-08 00:55:00,
2013-12-07 20:00:00,68.5,62.8,30.17,SE,126,0.0,0.0,82,0.00,,---,0.00,VWS V14.01,2013-12-08 01:00:00,
2013-12-07 20:05:00,68.2,62.8,30.17,SE,126,0.0,0.0,83,0.00,,---,0.00,VWS V14.01,2013-12-08 01:05:00,
2013-12-07 20:10:00,67.9,62.5,30.18,SE,127,0.0,0.0,83,0.00,,---,0.00,VWS V14.01,2013-12-08 01:10:00,
2013-12-07 20:15:00,67.7,62.7,30.18,SE,127,0.0,0.0,84,0.00,,---,0.00,VWS V14.01,2013-12-08 01:15:00,
2013-12-07 20:20:00,67.6,62.9,30.18,SE,126,0.0,0.0,85,0.00,,---,0.00,VWS V14.01,2013-12-08 01:20:00,
2013-12-07 20:25:00,67.4,62.7,30.18,SE,125,0.0,0.0,85,0.00,,---,0.00,VWS V14.01,2013-12-08 01:25:00,
2013-12-07 20:30:00,67.1,62.5,30.18,SE,125,0.0,0.0,85,0.00,,---,0.00,VWS V14.01,2013-12-08 01:30:00,
2013-12-07 20:35:00,67.1,62.8,30.18,SSE,150,0.0,1.0,86,0.00,,---,0.00,VWS V14.01,2013-12-08 01:35:00,
2013-12-07 20:40:00,67.3,63.0,30.19,West,259,0.0,1.0,86,0.00,,---,0.00,VWS V14.01,2013-12-08 01:40:00,
2013-12-07 20:41:00,67.3,63.0,30.18,West,259,0.0,0.0,86,0.00,,---,0.00,VWS V14.01,2013-12-08 01:41:00,
2013-12-07 20:46:00,67.5,63.5,30.19,West,259,0.0,1.0,87,0.00,,---,0.00,VWS V14.01,2013-12-08 01:46:00,
2013-12-07 20:50:00,67.5,63.5,30.19,West,259,0.0,1.0,87,0.00,,---,0.00,VWS V14.01,2013-12-08 01:50:00,
2013-12-07 20:51:00,67.5,63.5,30.19,East,101,2.0,2.0,87,0.00,,---,0.00,VWS V14.01,2013-12-08 01:51:00,
2013-12-07 20:56:00,67.6,63.6,30.19,ENE,72,0.0,2.0,87,0.00,,---,0.00,VWS V14.01,2013-12-08 01:56:00,
2013-12-07 21:00:00,67.5,63.5,30.19,ENE,72,0.0,2.0,87,0.00,,---,0.00,VWS V14.01,2013-12-08 02:00:00,
2013-12-07 21:01:00,67.5,63.5,30.19,ENE,72,0.0,0.0,87,0.00,,---,0.00,VWS V14.01,2013-12-08 02:01:00,
2013-12-07 21:06:00,67.6,63.6,30.19,ENE,72,0.0,1.0,87,0.00,,---,0.00,VWS V14.01,2013-12-08 02:06:00,
2013-12-07 21:10:00,67.6,63.6,30.19,ENE,72,0.0,1.0,87,0.00,,---,0.00,VWS V14.01,2013-12-08 02:10:00,
2013-12-07 21:11:00,67.6,63.6,30.19,ENE,72,0.0,0.0,87,0.00,,---,0.00,VWS V14.01,2013-12-08 02:11:00,
2013-12-07 21:16:00,67.4,63.1,30.19,ENE,72,0.0,0.0,86,0.00,,---,0.00,VWS V14.01,2013-12-08 02:16:00,
2013-12-07 21:20:00,67.2,62.9,30.19,ENE,72,0.0,0.0,86,0.00,,---,0.00,VWS V14.01,2013-12-08 02:20:00,
2013-12-07 21:21:00,67.2,62.9,30.19,ENE,72,0.0,0.0,86,0.00,,---,0.00,VWS V14.01,2013-12-08 02:21:00,
2013-12-07 21:26:00,67.1,63.1,30.19,ENE,72,0.0,0.0,87,0.00,,---,0.00,VWS V14.01,2013-12-08 02:26:00,
2013-12-07 21:30:00,67.1,63.1,30.19,ENE,72,0.0,0.0,87,0.00,,---,0.00,VWS V14.01,2013-12-08 02:30:00,
2013-12-07 21:31:00,67.0,63.0,30.20,ENE,72,0.0,0.0,87,0.00,,---,0.00,VWS V14.01,2013-12-08 02:31:00,
2013-12-07 21:36:00,66.8,62.8,30.20,ENE,72,0.0,0.0,87,0.00,,---,0.00,VWS V14.01,2013-12-08 02:36:00,
2013-12-07 21:40:00,66.6,62.6,30.19,ENE,72,0.0,0.0,87,0.00,,---,0.00,VWS V14.01,2013-12-08 02:40:00,
2013-12-07 21:41:00,66.6,62.6,30.20,ENE,72,0.0,0.0,87,0.00,,---,0.00,VWS V14.01,2013-12-08 02:41:00,
2013-12-07 21:46:00,66.4,62.4,30.19,ENE,72,0.0,0.0,87,0.00,,---,0.00,VWS V14.01,2013-12-08 02:46:00,
2013-12-07 21:50:00,66.3,62.3,30.20,ENE,72,0.0,0.0,87,0.00,,---,0.00,VWS V14.01,2013-12-08 02:50:00,
2013-12-07 21:51:00,66.3,62.3,30.19,ENE,72,0.0,0.0,87,0.00,,---,0.00,VWS V14.01,2013-12-08 02:51:00,
2013-12-07 21:56:00,66.0,62.0,30.20,ENE,72,0.0,0.0,87,0.00,,---,0.00,VWS V14.01,2013-12-08 02:56:00,
2013-12-07 22:00:00,66.0,62.0,30.19,ENE,72,0.0,0.0,87,0.00,,---,0.00,VWS V14.01,2013-12-08 03:00:00,
2013-12-07 22:01:00,65.9,61.9,30.20,ENE,72,0.0,0.0,87,0.00,,---,0.00,VWS V14.01,2013-12-08 03:01:00,
2013-12-07 22:06:00,65.7,61.7,30.20,ENE,72,0.0,0.0,87,0.00,,---,0.00,VWS V14.01,2013-12-08 03:06:00,
2013-12-07 22:10:00,65.6,61.6,30.20,ENE,72,0.0,0.0,87,0.00,,---,0.00,VWS V14.01,2013-12-08 03:10:00,
2013-12-07 22:11:00,65.6,61.6,30.20,ENE,72,0.0,0.0,87,0.00,,---,0.00,VWS V14.01,2013-12-08 03:11:00,
2013-12-07 22:16:00,65.4,61.4,30.20,ENE,72,0.0,0.0,87,0.00,,---,0.00,VWS V14.01,2013-12-08 03:16:00,
2013-12-07 22:20:00,65.3,61.7,30.20,ENE,72,0.0,0.0,88,0.00,,---,0.00,VWS V14.01,2013-12-08 03:20:00,
2013-12-07 22:21:00,65.2,61.2,30.20,ENE,72,0.0,0.0,87,0.00,,---,0.00,VWS V14.01,2013-12-08 03:21:00,
2013-12-07 22:26:00,65.1,61.5,30.20,ENE,72,0.0,0.0,88,0.00,,---,0.00,VWS V14.01,2013-12-08 03:26:00,
2013-12-07 22:30:00,65.1,61.5,30.20,ENE,72,0.0,0.0,88,0.00,,---,0.00,VWS V14.01,2013-12-08 03:30:00,
2013-12-07 22:31:00,65.0,61.4,30.20,ENE,72,0.0,0.0,88,0.00,,---,0.00,VWS V14.01,2013-12-08 03:31:00,
2013-12-07 22:36:00,64.9,61.3,30.20,ENE,72,0.0,0.0,88,0.00,,---,0.00,VWS V14.01,2013-12-08 03:36:00,
2013-12-07 22:40:00,65.2,61.6,30.21,ENE,72,0.0,1.0,88,0.00,,---,0.00,VWS V14.01,2013-12-08 03:40:00,
2013-12-07 22:41:00,65.2,61.2,30.21,ENE,72,0.0,0.0,87,0.00,,---,0.00,VWS V14.01,2013-12-08 03:41:00,
2013-12-07 22:46:00,65.1,61.1,30.20,ENE,72,0.0,0.0,87,0.00,,---,0.00,VWS V14.01,2013-12-08 03:46:00,
2013-12-07 22:50:00,65.0,61.0,30.20,ENE,72,0.0,0.0,87,0.00,,---,0.00,VWS V14.01,2013-12-08 03:50:00,
2013-12-07 22:51:00,64.9,61.3,30.20,ENE,72,0.0,0.0,88,0.00,,---,0.00,VWS V14.01,2013-12-08 03:51:00,
2013-12-07 22:56:00,64.8,61.2,30.20,ENE,72,0.0,0.0,88,0.00,,---,0.00,VWS V14.01,2013-12-08 03:56:00,
2013-12-07 23:00:00,64.7,61.1,30.20,ENE,72,0.0,0.0,88,0.00,,---,0.00,VWS V14.01,2013-12-08 04:00:00,
2013-12-07 23:01:00,64.7,61.1,30.20,ENE,72,0.0,0.0,88,0.00,,---,0.00,VWS V14.01,2013-12-08 04:01:00,
2013-12-07 23:06:00,64.5,60.9,30.20,ENE,72,0.0,0.0,88,0.00,,---,0.00,VWS V14.01,2013-12-08 04:06:00,
2013-12-07 23:10:00,64.4,60.8,30.20,ENE,72,0.0,0.0,88,0.00,,---,0.00,VWS V14.01,2013-12-08 04:10:00,
2013-12-07 23:11:00,64.4,60.8,30.20,ENE,72,0.0,0.0,88,0.00,,---,0.00,VWS V14.01,2013-12-08 04:11:00,
2013-12-07 23:16:00,64.3,60.7,30.20,ENE,72,0.0,0.0,88,0.00,,---,0.00,VWS V14.01,2013-12-08 04:16:00,
2013-12-07 23:20:00,64.2,60.6,30.20,ENE,72,0.0,0.0,88,0.00,,---,0.00,VWS V14.01,2013-12-08 04:20:00,
2013-12-07 23:22:00,64.2,60.6,30.20,ENE,72,0.0,0.0,88,0.00,,---,0.00,VWS V14.01,2013-12-08 04:22:00,
2013-12-07 23:27:00,64.1,60.5,30.20,ENE,72,0.0,0.0,88,0.00,,---,0.00,VWS V14.01,2013-12-08 04:27:00,
2013-12-07 23:30:00,64.1,60.5,30.20,ENE,72,0.0,0.0,88,0.00,,---,0.00,VWS V14.01,2013-12-08 04:30:00,
2013-12-07 23:32:00,64.0,60.4,30.20,ENE,72,0.0,0.0,88,0.00,,---,0.00,VWS V14.01,2013-12-08 04:32:00,
2013-12-07 23:37:00,63.9,60.3,30.20,ENE,72,0.0,0.0,88,0.00,,---,0.00,VWS V14.01,2013-12-08 04:37:00,
2013-12-07 23:40:00,63.8,60.2,30.20,ENE,72,0.0,0.0,88,0.00,,---,0.00,VWS V14.01,2013-12-08 04:40:00,
2013-12-07 23:42:00,63.7,60.1,30.20,ENE,72,0.0,0.0,88,0.00,,---,0.00,VWS V14.01,2013-12-08 04:42:00,
2013-12-07 23:47:00,63.6,60.0,30.20,ENE,72,0.0,0.0,88,0.00,,---,0.00,VWS V14.01,2013-12-08 04:47:00,
2013-12-07 23:50:00,63.5,59.9,30.20,ENE,72,0.0,0.0,88,0.00,,---,0.00,VWS V14.01,2013-12-08 04:50:00,
2013-12-07 23:52:00,63.4,59.8,30.20,ENE,72,0.0,0.0,88,0.00,,---,0.00,VWS V14.01,2013-12-08 04:52:00,
2013-12-07 23:57:00,63.3,59.7,30.20,ENE,72,0.0,0.0,88,0.00,,---,0.00,VWS V14.01,2013-12-08 04:57:00,